Time;durP1;ratioP1;P1;durP2;ratioP2;P2;SDS_P1;SDS_P2;PMS_P1;PMS_P2;Temp;Humidity;BMP_temperature;BMP_pressure;BME280_temperature;BME280_humidity;BME280_pressure;Samples;Min_cycle;Max_cycle;Signal;HPM_P1;HPM_P2
2022/04/28 00:01:40;;;;;;;;;34.00;30.00;;;;;16.25;44.84;101997.81;5070244;28;45548;-66
2022/04/28 00:04:05;;;;;;;;;31.75;30.00;;;;;16.19;44.76;101981.88;5065271;28;46285;-67
2022/04/28 00:06:31;;;;;;;;;31.00;29.50;;;;;16.21;44.85;101997.06;5066009;28;45160;-66
2022/04/28 00:08:56;;;;;;;;;35.75;29.25;;;;;16.14;44.80;101984.75;5068166;27;45348;-66
2022/04/28 00:11:22;;;;;;;;;31.50;29.50;;;;;16.07;44.87;101985.88;5067782;27;45607;-66
2022/04/28 00:13:47;;;;;;;;;30.50;28.00;;;;;16.10;45.08;101986.69;5067698;28;45389;-66
2022/04/28 00:16:12;;;;;;;;;35.25;30.25;;;;;16.13;44.68;101990.19;5060364;28;45449;-66
2022/04/28 00:18:38;;;;;;;;;28.75;25.75;;;;;16.06;44.99;101976.06;5061215;28;45443;-66
2022/04/28 00:21:03;;;;;;;;;31.25;29.75;;;;;16.14;44.99;101987.44;5075609;27;45386;-67
2022/04/28 00:23:28;;;;;;;;;30.00;29.00;;;;;16.16;44.53;101988.25;5074229;27;46627;-66
2022/04/28 00:25:54;;;;;;;;;24.50;24.50;;;;;16.16;44.82;101990.09;5076677;27;45393;-66
2022/04/28 00:28:20;;;;;;;;;32.50;30.00;;;;;16.14;44.75;101990.13;5060704;28;45371;-67
2022/04/28 00:30:46;;;;;;;;;29.75;26.25;;;;;16.11;44.85;101982.16;5066109;28;45512;-67
2022/04/28 00:33:11;;;;;;;;;30.50;29.75;;;;;16.17;44.88;101987.34;5075982;28;47290;-66
2022/04/28 00:35:38;;;;;;;;;35.00;31.50;;;;;16.16;44.81;101979.31;5073643;28;45767;-67
2022/04/28 00:38:04;;;;;;;;;31.50;28.00;;;;;16.14;45.00;101979.38;5060484;28;45532;-66
2022/04/28 00:40:29;;;;;;;;;30.25;29.75;;;;;16.09;44.76;101974.13;5061963;28;45316;-67
2022/04/28 00:43:18;;;;;;;;;31.75;28.50;;;;;16.02;44.69;101975.31;5060293;28;45278;-66
2022/04/28 00:45:40;;;;;;;;;33.00;31.50;;;;;15.96;44.71;101980.03;5079285;27;45645;-66
2022/04/28 00:50:50;;;;;;;;;26.50;25.50;;;;;15.87;44.90;101974.03;5069098;28;45332;-66
2022/04/28 00:53:16;;;;;;;;;33.75;29.50;;;;;15.81;45.19;101968.84;5063450;27;45341;-66
2022/04/28 00:55:42;;;;;;;;;27.00;25.75;;;;;15.78;44.92;101963.56;5079582;28;45497;-66
2022/04/28 00:58:10;;;;;;;;;34.00;30.25;;;;;15.81;45.03;101968.84;5063100;27;45443;-67
2022/04/28 01:00:37;;;;;;;;;34.00;29.50;;;;;15.83;44.99;101976.88;5075590;28;45440;-66
2022/04/28 01:03:02;;;;;;;;;43.25;31.00;;;;;15.81;45.17;101976.06;5074398;28;46063;-66
2022/04/28 01:05:28;;;;;;;;;35.00;30.50;;;;;15.83;45.00;101977.75;5063529;28;45314;-67
2022/04/28 01:07:53;;;;;;;;;29.00;28.00;;;;;15.78;44.87;101971.63;5073651;28;45220;-67
2022/04/28 01:10:18;;;;;;;;;27.50;27.50;;;;;15.82;44.99;101984.06;5067122;28;45299;-66
2022/04/28 01:12:46;;;;;;;;;31.00;29.75;;;;;15.73;45.17;101968.19;5061592;28;46105;-66
2022/04/28 01:15:12;;;;;;;;;28.50;28.25;;;;;15.74;44.72;101975.34;5064896;27;45695;-66
2022/04/28 01:17:37;;;;;;;;;26.75;26.75;;;;;15.71;44.97;101978.13;5059795;28;45221;-66
2022/04/28 01:20:03;;;;;;;;;36.00;31.00;;;;;15.66;44.91;101969.34;5066275;28;45309;-67
2022/04/28 01:22:28;;;;;;;;;33.00;29.50;;;;;15.67;45.07;101972.00;5061636;28;46258;-66
2022/04/28 01:24:55;;;;;;;;;31.25;29.75;;;;;15.59;44.78;101973.19;5070713;27;45651;-67
2022/04/28 01:27:21;;;;;;;;;33.25;32.25;;;;;15.48;45.16;101966.31;5060013;28;45442;-66
2022/04/28 01:29:47;;;;;;;;;31.25;30.75;;;;;15.49;45.23;101978.88;5062513;28;45174;-66
2022/04/28 01:32:12;;;;;;;;;34.75;32.00;;;;;15.37;45.03;101965.81;5076589;28;46070;-67
2022/04/28 01:34:37;;;;;;;;;31.50;28.50;;;;;15.39;45.11;101977.41;5069067;28;54793;-66
2022/04/28 01:37:03;;;;;;;;;32.00;30.00;;;;;15.35;45.50;101973.03;5076674;28;45444;-66
2022/04/28 01:39:28;;;;;;;;;33.50;31.25;;;;;15.29;45.28;101957.13;5058841;28;46728;-66
2022/04/28 01:41:53;;;;;;;;;31.75;28.75;;;;;15.32;45.58;101970.47;5075086;28;47385;-66
2022/04/28 01:44:19;;;;;;;;;32.25;29.75;;;;;15.32;45.65;101968.66;5066234;28;45250;-66
2022/04/28 01:46:44;;;;;;;;;38.25;33.75;;;;;15.36;45.41;101969.44;5076294;28;45239;-66
2022/04/28 01:49:10;;;;;;;;;30.75;27.50;;;;;15.35;45.41;101975.72;5065489;28;45591;-66
2022/04/28 01:57:03;;;;;;;;;31.25;29.75;;;;;15.33;46.03;101974.91;5068204;28;45354;-66
2022/04/28 01:59:29;;;;;;;;;33.25;30.25;;;;;15.33;45.66;101978.47;5072535;28;45783;-66
2022/04/28 02:01:54;;;;;;;;;34.00;32.00;;;;;15.33;45.54;101978.47;5059213;28;45282;-66
2022/04/28 02:04:20;;;;;;;;;32.75;31.00;;;;;15.33;45.48;101980.28;5061203;28;45572;-66
2022/04/28 02:06:45;;;;;;;;;30.25;27.50;;;;;15.30;45.57;101977.69;5067920;28;45308;-66
2022/04/28 02:09:11;;;;;;;;;35.25;30.00;;;;;15.31;45.81;101985.72;5069609;28;45519;-64
2022/04/28 02:11:36;;;;;;;;;28.25;26.50;;;;;15.28;45.83;101991.19;5059269;27;45448;-64
2022/04/28 02:14:02;;;;;;;;;25.00;25.00;;;;;15.23;45.92;101985.09;5068260;28;45429;-64
2022/04/28 02:16:27;;;;;;;;;39.50;33.25;;;;;15.18;45.44;101989.72;5058967;28;45304;-64
2022/04/28 02:18:52;;;;;;;;;33.25;30.00;;;;;15.04;45.94;101983.94;5062331;28;45357;-64
2022/04/28 02:21:18;;;;;;;;;31.50;27.75;;;;;14.98;45.94;101990.34;5059403;28;45351;-64
2022/04/28 02:23:43;;;;;;;;;32.50;29.50;;;;;14.91;46.21;101986.09;5070349;28;45306;-64
2022/04/28 02:26:09;;;;;;;;;29.25;28.50;;;;;14.82;46.16;101977.41;5060750;28;45243;-64
2022/04/28 02:28:34;;;;;;;;;40.25;32.00;;;;;14.86;46.39;101988.06;5062841;28;45254;-64
2022/04/28 02:30:59;;;;;;;;;33.75;29.00;;;;;14.78;46.39;101985.59;5081016;28;45575;-64
2022/04/28 02:33:25;;;;;;;;;31.50;29.25;;;;;14.71;46.50;101990.28;5069954;28;45452;-64
2022/04/28 02:35:50;;;;;;;;;33.75;31.00;;;;;14.56;46.37;101985.31;5080654;28;45820;-64
2022/04/28 02:38:15;;;;;;;;;32.75;31.25;;;;;14.60;46.51;101995.06;5069804;28;45337;-64
2022/04/28 02:40:40;;;;;;;;;32.00;31.00;;;;;14.52;46.44;101992.59;5074857;28;60887;-64
2022/04/28 02:43:06;;;;;;;;;27.00;24.75;;;;;14.54;46.84;101993.44;5062430;28;45406;-64
2022/04/28 02:45:48;;;;;;;;;31.00;30.50;;;;;14.51;46.88;101993.50;5077421;28;45229;-64
2022/04/28 02:48:13;;;;;;;;;30.00;28.25;;;;;14.50;46.81;101986.41;5067324;28;45392;-64
2022/04/28 02:50:39;;;;;;;;;34.25;31.25;;;;;14.57;46.81;101993.34;5072896;28;45472;-67
2022/04/28 02:53:04;;;;;;;;;33.75;32.50;;;;;14.55;46.87;101986.22;5067324;28;45361;-67
2022/04/28 02:55:29;;;;;;;;;32.75;31.00;;;;;14.49;46.77;101973.00;5062302;28;45427;-66
2022/04/28 02:57:56;;;;;;;;;33.50;31.50;;;;;14.62;46.77;101995.94;5062010;28;45264;-67
2022/04/28 03:00:21;;;;;;;;;36.75;31.75;;;;;14.59;46.96;101993.34;5072036;28;45672;-66
2022/04/28 03:02:46;;;;;;;;;29.50;29.00;;;;;14.62;46.87;101999.50;5064760;28;45433;-67
2022/04/28 03:05:12;;;;;;;;;27.50;26.75;;;;;14.62;46.86;102001.31;5078776;28;45328;-67
2022/04/28 03:10:49;;;;;;;;;30.00;27.25;;;;;14.63;46.97;102005.75;5064331;28;45500;-67
2022/04/28 03:13:17;;;;;;;;;31.25;27.75;;;;;14.60;46.70;101998.66;5068049;28;45407;-67
2022/04/28 03:15:44;;;;;;;;;31.00;29.25;;;;;14.62;46.75;102004.00;5068616;28;45445;-67
2022/04/28 03:18:09;;;;;;;;;29.25;28.00;;;;;14.66;46.82;102012.84;5061922;28;45524;-67
2022/04/28 03:20:34;;;;;;;;;28.50;27.50;;;;;14.64;46.91;102004.81;5065711;28;46128;-67
2022/04/28 03:23:00;;;;;;;;;29.50;28.75;;;;;14.63;46.84;102000.38;5068316;28;45295;-64
2022/04/28 03:25:25;;;;;;;;;30.25;27.75;;;;;14.61;46.78;102002.22;5068431;28;45324;-64
2022/04/28 03:27:50;;;;;;;;;28.75;27.50;;;;;14.55;46.96;102003.25;5060377;28;45501;-64
2022/04/28 03:30:16;;;;;;;;;30.50;28.50;;;;;14.61;46.90;102011.16;5069039;28;45702;-64
2022/04/28 03:32:42;;;;;;;;;31.25;30.00;;;;;14.55;47.06;101997.88;5064365;28;45478;-64
2022/04/28 03:35:10;;;;;;;;;50.75;41.75;;;;;14.55;46.89;102010.41;5061420;28;45296;-64
2022/04/28 03:37:36;;;;;;;;;29.50;28.50;;;;;14.54;46.98;102006.00;5067170;28;45464;-64
2022/04/28 03:40:01;;;;;;;;;28.00;27.00;;;;;14.51;47.08;102011.44;5068355;28;45523;-67
2022/04/28 03:42:28;;;;;;;;;31.00;30.50;;;;;14.50;47.04;102006.97;5075600;28;45224;-64
2022/04/28 03:44:54;;;;;;;;;30.75;29.50;;;;;14.49;46.88;102016.84;5067314;28;45234;-64
2022/04/28 03:47:19;;;;;;;;;30.25;27.50;;;;;14.49;47.21;102010.63;5061528;28;46100;-65
2022/04/28 03:49:45;;;;;;;;;31.25;28.25;;;;;14.50;47.01;102017.72;5066642;28;46809;-64
2022/04/28 03:52:10;;;;;;;;;30.00;29.50;;;;;14.49;47.33;102008.81;5072764;28;45241;-64
2022/04/28 03:54:36;;;;;;;;;27.00;26.75;;;;;14.49;47.28;102013.31;5066949;28;45194;-64
2022/04/28 03:57:01;;;;;;;;;28.75;25.50;;;;;14.41;47.36;102009.00;5066707;28;45309;-64
2022/04/28 03:59:26;;;;;;;;;28.25;27.00;;;;;14.48;47.34;102014.22;5077803;28;46959;-64
2022/04/28 04:01:52;;;;;;;;;29.50;27.25;;;;;14.46;47.35;102023.19;5072663;28;45301;-64
2022/04/28 04:04:17;;;;;;;;;29.25;28.75;;;;;14.44;47.51;102022.34;5062284;28;45388;-64
2022/04/28 04:06:43;;;;;;;;;30.00;27.50;;;;;14.35;47.66;102005.59;5075279;28;45388;-64
2022/04/28 04:09:08;;;;;;;;;32.00;31.25;;;;;14.42;47.18;102020.66;5067336;28;45453;-64
2022/04/28 04:11:33;;;;;;;;;33.75;32.25;;;;;14.38;47.33;102025.25;5080639;27;45822;-64
2022/04/28 04:13:59;;;;;;;;;26.25;25.25;;;;;14.35;47.43;102019.94;5081528;28;45414;-64
2022/04/28 04:16:24;;;;;;;;;32.75;29.25;;;;;14.36;47.46;102026.19;5060084;28;45796;-64
2022/04/28 04:18:49;;;;;;;;;30.00;27.00;;;;;14.36;47.78;102026.19;5067373;28;45403;-64
2022/04/28 04:21:15;;;;;;;;;35.00;32.00;;;;;14.30;47.63;102016.50;5062741;28;45421;-64
2022/04/28 04:23:40;;;;;;;;;32.50;30.75;;;;;14.33;47.56;102021.75;5071433;28;45441;-64
2022/04/28 04:26:05;;;;;;;;;30.50;28.50;;;;;14.35;47.75;102028.00;5066949;28;45602;-64
2022/04/28 04:28:31;;;;;;;;;29.50;26.50;;;;;14.35;47.51;102036.06;5078974;28;45418;-66
2022/04/28 04:33:41;;;;;;;;;29.25;29.00;;;;;14.33;47.82;102040.56;5064829;28;45232;-67
2022/04/28 04:36:07;;;;;;;;;33.00;30.50;;;;;14.30;47.76;102040.69;5060440;28;45219;-64
2022/04/28 04:38:32;;;;;;;;;34.00;32.25;;;;;14.30;47.78;102038.00;5060124;28;45370;-64
2022/04/28 04:40:57;;;;;;;;;34.75;31.25;;;;;14.33;48.02;102047.75;5059546;28;45831;-64
2022/04/28 04:43:23;;;;;;;;;30.25;28.00;;;;;14.31;47.80;102041.56;5061719;28;45398;-64
2022/04/28 04:45:48;;;;;;;;;34.50;30.50;;;;;14.29;47.92;102038.03;5060208;28;45644;-64
2022/04/28 04:48:14;;;;;;;;;35.75;31.50;;;;;14.28;48.00;102039.81;5058021;28;47233;-64
2022/04/28 04:50:40;;;;;;;;;34.50;32.75;;;;;14.26;47.82;102044.34;5060433;28;45310;-64
2022/04/28 04:53:07;;;;;;;;;31.50;31.25;;;;;14.21;48.04;102040.91;5076589;28;45227;-64
2022/04/28 04:55:42;;;;;;;;;32.75;30.50;;;;;14.27;48.09;102054.19;5080442;28;45387;-64
2022/04/28 04:58:07;;;;;;;;;37.75;32.75;;;;;14.22;48.03;102046.25;5076959;28;46134;-64
2022/04/28 05:00:33;;;;;;;;;35.00;32.75;;;;;14.18;47.87;102039.22;5075591;28;45658;-67
2022/04/28 05:02:58;;;;;;;;;28.25;28.25;;;;;14.16;48.17;102051.78;5076464;28;45392;-65
2022/04/28 05:05:24;;;;;;;;;34.50;32.25;;;;;14.15;48.21;102059.88;5070366;28;45252;-65
2022/04/28 05:07:49;;;;;;;;;26.50;24.25;;;;;14.02;48.14;102043.22;5066278;28;45299;-65
2022/04/28 05:10:15;;;;;;;;;34.75;33.75;;;;;13.95;48.22;102047.88;5062120;28;45422;-66
2022/04/28 05:12:40;;;;;;;;;31.00;28.25;;;;;14.04;48.29;102069.09;5076999;27;45490;-66
2022/04/28 05:15:06;;;;;;;;;33.75;31.00;;;;;13.99;48.81;102056.72;5070201;28;45452;-66
2022/04/28 05:17:31;;;;;;;;;34.50;31.00;;;;;14.07;48.60;102070.81;5059582;28;45236;-66
2022/04/28 05:19:58;;;;;;;;;33.00;32.00;;;;;14.09;48.85;102077.03;5059919;28;45191;-66
2022/04/28 05:22:24;;;;;;;;;41.00;37.00;;;;;14.01;48.69;102069.16;5062760;28;45571;-65
2022/04/28 05:24:52;;;;;;;;;37.75;32.25;;;;;13.97;48.64;102063.94;5068193;28;45495;-65
2022/04/28 05:27:18;;;;;;;;;33.50;30.00;;;;;14.06;48.83;102077.09;5063833;28;45789;-65
2022/04/28 05:29:43;;;;;;;;;35.75;33.25;;;;;14.03;48.84;102069.13;5061638;28;45324;-65
2022/04/28 05:32:09;;;;;;;;;42.00;36.50;;;;;14.07;49.12;102087.81;5070632;28;45323;-66
2022/04/28 05:34:34;;;;;;;;;38.75;34.25;;;;;14.02;48.69;102089.72;5062919;28;45440;-66
2022/04/28 05:37:00;;;;;;;;;37.25;33.50;;;;;14.02;48.82;102105.84;5057901;28;46792;-66
2022/04/28 05:39:28;;;;;;;;;41.75;33.00;;;;;14.04;48.94;102103.13;5059643;28;45311;-66
2022/04/28 05:41:54;;;;;;;;;37.50;33.75;;;;;14.05;48.74;102104.91;5066006;28;45241;-66
2022/04/28 05:47:04;;;;;;;;;40.50;33.75;;;;;14.04;49.10;102105.81;5070892;28;45670;-66
2022/04/28 05:49:30;;;;;;;;;39.25;35.75;;;;;13.99;49.08;102096.97;5070758;28;45264;-66
2022/04/28 05:51:57;;;;;;;;;41.50;35.50;;;;;14.01;49.17;102101.38;5061879;28;45210;-78
2022/04/28 05:54:23;;;;;;;;;40.25;36.50;;;;;13.89;49.07;102086.47;5070762;28;45411;-81
2022/04/28 05:56:52;;;;;;;;;47.75;37.25;;;;;13.79;48.94;102071.50;5064480;28;45544;-79
2022/04/28 05:59:17;;;;;;;;;38.00;34.50;;;;;13.90;49.11;102092.72;5068807;28;45480;-83
2022/04/28 06:01:46;;;;;;;;;37.50;34.00;;;;;13.57;49.25;102040.78;5079295;28;45350;-82
2022/04/28 06:04:11;;;;;;;;;40.75;34.75;;;;;13.80;49.10;102085.81;5068548;28;46009;-82
2022/04/28 06:06:37;;;;;;;;;41.75;35.75;;;;;13.79;49.16;102089.41;5070453;28;47210;-81
2022/04/28 06:09:03;;;;;;;;;41.50;34.50;;;;;13.53;49.15;102034.56;5085779;27;45641;-81
2022/04/28 06:11:29;;;;;;;;;37.00;34.75;;;;;13.61;49.17;102047.81;5077296;28;45423;-81
2022/04/28 06:13:54;;;;;;;;;44.00;38.00;;;;;13.84;49.21;102087.50;5083038;28;45405;-81
2022/04/28 06:16:20;;;;;;;;;41.00;36.25;;;;;13.71;49.35;102069.03;5065640;28;46976;-77
2022/04/28 06:18:48;;;;;;;;;43.25;35.75;;;;;13.58;49.19;102061.28;5067482;28;45617;-80
2022/04/28 06:21:14;;;;;;;;;45.50;37.50;;;;;13.53;49.29;102050.66;5078874;28;45354;-79
2022/04/28 06:23:42;;;;;;;;;40.25;35.50;;;;;13.76;49.54;102084.13;5068267;28;45490;-81
2022/04/28 06:26:18;;;;;;;;;41.25;36.75;;;;;14.02;49.51;102138.06;5074431;28;46659;-79
2022/04/28 06:28:44;;;;;;;;;38.00;33.00;;;;;13.55;49.26;102056.00;5067880;28;45488;-77
2022/04/28 06:31:09;;;;;;;;;39.50;34.50;;;;;14.01;49.52;102130.03;5078333;28;45455;-80
2022/04/28 06:33:39;;;;;;;;;34.00;31.75;;;;;13.55;49.35;102058.69;5072766;28;45593;-80
2022/04/28 06:36:04;;;;;;;;;41.25;36.75;;;;;13.54;49.47;102052.44;5076501;28;47206;-80
2022/04/28 06:38:30;;;;;;;;;42.25;35.75;;;;;13.60;49.45;102063.03;5075665;28;45847;-79
2022/04/28 06:40:56;;;;;;;;;38.50;35.00;;;;;13.70;49.38;102087.84;5064358;28;45465;-78
2022/04/28 06:43:21;;;;;;;;;40.50;36.50;;;;;13.67;49.17;102087.91;5076171;28;45540;-79
2022/04/28 06:48:31;;;;;;;;;41.25;34.50;;;;;14.06;49.45;102131.66;5068793;28;45663;-79
2022/04/28 06:50:59;;;;;;;;;45.25;38.50;;;;;14.09;49.30;102130.72;5063141;28;45403;-79
2022/04/28 06:53:25;;;;;;;;;42.50;36.75;;;;;13.90;49.39;102088.25;5070723;28;45571;-79
2022/04/28 06:55:50;;;;;;;;;47.75;37.50;;;;;13.88;49.34;102078.44;5077737;28;46879;-79
2022/04/28 06:58:25;;;;;;;;;;;;;;;;;;;;;
2022/04/28 07:00:54;;;;;;;;;47.25;39.75;;;;;14.11;49.31;102125.31;5067112;28;68943;-79
2022/04/28 07:03:19;;;;;;;;;42.50;37.50;;;;;14.29;49.03;102145.47;5065322;28;45422;-75
2022/04/28 07:05:45;;;;;;;;;44.75;38.75;;;;;14.33;49.06;102160.56;5058709;28;45580;-66
2022/04/28 07:08:10;;;;;;;;;45.50;37.75;;;;;14.21;49.35;102146.53;5063213;28;45376;-66
2022/04/28 07:10:37;;;;;;;;;45.00;37.25;;;;;14.27;49.81;102156.25;5069777;28;45422;-66
2022/04/28 07:13:03;;;;;;;;;41.50;34.25;;;;;14.32;49.58;102164.19;5063171;27;45633;-66
2022/04/28 07:15:28;;;;;;;;;48.00;38.00;;;;;14.37;49.51;102162.28;5075694;27;46141;-66
2022/04/28 07:17:54;;;;;;;;;42.75;35.50;;;;;14.38;49.57;102162.25;5082512;27;46462;-66
2022/04/28 07:20:19;;;;;;;;;44.00;37.25;;;;;14.43;49.51;102168.38;5067817;27;45287;-66
2022/04/28 07:22:44;;;;;;;;;47.75;39.00;;;;;14.44;49.45;102167.44;5072749;27;46171;-65
2022/04/28 07:25:10;;;;;;;;;41.50;36.50;;;;;14.49;49.56;102161.06;5067414;28;45445;-66
2022/04/28 07:27:35;;;;;;;;;43.50;37.25;;;;;14.48;49.05;102159.28;5071294;28;45435;-66
2022/04/28 07:30:03;;;;;;;;;44.50;35.25;;;;;14.43;49.33;102157.63;5067626;28;45614;-66
2022/04/28 07:32:28;;;;;;;;;44.25;37.25;;;;;14.44;49.23;102159.38;5071640;28;45417;-66
2022/04/28 07:34:53;;;;;;;;;48.00;39.50;;;;;14.56;49.22;102171.59;5067871;28;45585;-66
2022/04/28 07:37:19;;;;;;;;;38.75;34.00;;;;;14.59;49.23;102171.56;5063622;27;45338;-66
2022/04/28 07:39:44;;;;;;;;;42.75;37.00;;;;;14.52;49.17;102153.81;5062533;28;45252;-66
2022/04/28 07:42:09;;;;;;;;;41.50;34.75;;;;;14.53;49.13;102147.50;5060788;28;45321;-66
2022/04/28 07:44:36;;;;;;;;;38.50;34.00;;;;;14.71;49.39;102164.97;5063267;28;45378;-66
2022/04/28 07:47:01;;;;;;;;;43.25;37.50;;;;;14.76;48.89;102162.16;5069223;28;45669;-66
2022/04/28 07:49:26;;;;;;;;;37.00;33.25;;;;;14.70;49.30;102151.56;5064721;27;45568;-66
2022/04/28 07:51:52;;;;;;;;;41.75;36.50;;;;;14.84;48.67;102170.03;5072340;28;45310;-66
2022/04/28 07:54:17;;;;;;;;;41.25;34.25;;;;;14.89;49.58;102163.59;5065510;28;46507;-65
2022/04/28 07:56:45;;;;;;;;;39.00;34.00;;;;;14.97;49.31;102166.06;5059471;28;45422;-66
2022/04/28 07:59:11;;;;;;;;;45.50;37.50;;;;;14.98;48.99;102165.13;5070258;27;45458;-66
2022/04/28 08:01:37;;;;;;;;;41.75;34.75;;;;;15.00;48.81;102158.81;5071272;28;45900;-66
2022/04/28 08:04:02;;;;;;;;;40.25;34.00;;;;;15.13;48.53;102175.44;5067667;28;45396;-66
2022/04/28 08:06:27;;;;;;;;;42.25;35.00;;;;;15.11;48.69;102158.47;5063508;28;45557;-66
2022/04/28 08:08:53;;;;;;;;;43.50;36.25;;;;;15.31;48.58;102182.09;5063664;28;45302;-66
2022/04/28 08:11:18;;;;;;;;;41.00;35.00;;;;;15.38;48.49;102178.34;5061703;28;45378;-66
2022/04/28 08:13:43;;;;;;;;;42.00;36.00;;;;;15.45;48.27;102181.72;5065820;28;45600;-66
2022/04/28 08:16:09;;;;;;;;;45.75;36.25;;;;;15.42;48.06;102159.38;5064324;28;45398;-66
2022/04/28 08:18:37;;;;;;;;;40.25;35.75;;;;;15.52;48.32;102161.75;5058129;28;45386;-66
2022/04/28 08:21:03;;;;;;;;;43.00;37.00;;;;;15.59;47.84;102173.22;5069671;27;45712;-69
2022/04/28 08:23:29;;;;;;;;;36.50;33.50;;;;;15.65;47.95;102178.44;5062683;27;45524;-66
2022/04/28 08:25:54;;;;;;;;;40.50;36.00;;;;;15.67;47.75;102181.03;5079436;28;45392;-66
2022/04/28 08:28:20;;;;;;;;;34.75;30.25;;;;;15.66;47.80;102182.00;5066067;28;45742;-66
2022/04/28 08:30:45;;;;;;;;;36.00;30.50;;;;;15.70;47.68;102176.47;5070073;28;45617;-66
2022/04/28 08:33:11;;;;;;;;;39.00;33.50;;;;;15.78;47.55;102178.94;5062029;28;45886;-66
2022/04/28 08:35:36;;;;;;;;;37.00;32.00;;;;;15.78;47.57;102178.94;5061381;28;45524;-66
2022/04/28 08:38:02;;;;;;;;;38.25;33.00;;;;;15.85;47.36;102174.25;5075496;28;45880;-66
2022/04/28 08:40:27;;;;;;;;;31.50;29.75;;;;;15.93;47.04;102186.53;5079387;28;45398;-66
2022/04/28 08:42:55;;;;;;;;;33.00;30.25;;;;;16.00;47.54;102187.22;5079630;28;45407;-66
2022/04/28 08:45:27;;;;;;;;;42.75;34.00;;;;;16.06;47.21;102188.84;5078110;28;45736;-66
2022/04/28 08:47:56;;;;;;;;;34.50;31.50;;;;;16.14;46.95;102181.41;5078536;28;45407;-66
2022/04/28 08:50:22;;;;;;;;;35.75;32.00;;;;;16.06;46.89;102186.16;5072072;28;45224;-66
2022/04/28 08:52:48;;;;;;;;;34.25;29.75;;;;;16.17;46.66;102185.78;5064106;28;45578;-66
2022/04/28 08:55:16;;;;;;;;;35.75;30.75;;;;;16.17;46.61;102177.69;5071957;27;45400;-66
2022/04/28 08:57:41;;;;;;;;;34.75;30.00;;;;;16.22;46.65;102167.66;5058791;28;45427;-66
2022/04/28 09:00:07;;;;;;;;;31.75;30.00;;;;;16.34;46.68;102175.34;5079261;28;45209;-66
2022/04/28 09:02:33;;;;;;;;;31.50;29.75;;;;;16.36;46.98;102165.38;5075406;28;46948;-66
2022/04/28 09:05:04;;;;;;;;;31.75;30.00;;;;;16.43;46.37;102177.72;5064392;28;45836;-66
2022/04/28 09:07:34;;;;;;;;;27.00;27.00;;;;;16.44;46.46;102174.09;5071054;28;45437;-66
2022/04/28 09:10:00;;;;;;;;;27.50;27.25;;;;;16.35;46.36;102146.56;5065467;28;45652;-66
2022/04/28 09:12:25;;;;;;;;;32.00;30.00;;;;;16.52;46.45;102171.13;5069406;27;47153;-66
2022/04/28 09:15:24;;;;;;;;;31.75;28.50;;;;;16.52;46.36;102171.13;5070628;28;45410;-74
2022/04/28 09:18:07;;;;;;;;;;;;;;;;;;;;;
2022/04/28 09:21:20;;;;;;;;;;;;;;;;;;;;;
2022/04/28 09:23:55;;;;;;;;;28.25;25.00;;;;;16.22;45.65;102079.66;5071066;28;75700;-74
2022/04/28 09:26:24;;;;;;;;;29.50;27.75;;;;;16.56;45.73;102126.97;5063646;28;45339;-66
2022/04/28 09:28:51;;;;;;;;;30.75;28.00;;;;;16.76;45.68;102152.34;5066330;28;45531;-66
2022/04/28 09:31:18;;;;;;;;;26.25;26.25;;;;;16.81;45.40;102162.00;5069334;28;47130;-66
2022/04/28 09:33:46;;;;;;;;;27.00;27.00;;;;;16.85;45.23;102154.72;5077218;28;47075;-66
2022/04/28 09:36:12;;;;;;;;;27.00;27.00;;;;;16.93;45.39;102159.84;5073895;28;45360;-66
2022/04/28 09:38:38;;;;;;;;;28.50;25.75;;;;;17.00;45.32;102155.97;5057883;28;45457;-66
2022/04/28 09:43:55;;;;;;;;;21.75;20.75;;;;;17.08;45.08;102161.09;5057189;28;47717;-66
2022/04/28 09:46:23;;;;;;;;;33.75;31.25;;;;;17.09;44.98;102146.66;5073219;28;45330;-66
2022/04/28 09:48:49;;;;;;;;;30.25;28.75;;;;;17.12;44.70;102154.63;5077262;28;45441;-66
2022/04/28 09:51:21;;;;;;;;;28.50;26.50;;;;;17.20;44.95;102166.03;5064001;28;45354;-66
2022/04/28 09:53:48;;;;;;;;;32.75;30.75;;;;;17.29;44.97;102160.31;5074521;28;45795;-66
2022/04/28 09:56:18;;;;;;;;;26.00;24.25;;;;;17.36;44.77;102155.53;5075552;28;45497;-66
2022/04/28 09:58:45;;;;;;;;;21.00;19.25;;;;;17.37;44.52;102146.50;5070383;28;45267;-66
2022/04/28 10:01:11;;;;;;;;;28.50;26.75;;;;;17.38;44.43;102146.44;5061410;28;45534;-66
2022/04/28 10:03:40;;;;;;;;;27.50;26.50;;;;;17.43;44.78;102146.25;5074563;28;45460;-66
2022/04/28 10:06:06;;;;;;;;;26.25;25.00;;;;;17.40;44.67;102144.56;5070313;28;45595;-66
2022/04/28 10:08:33;;;;;;;;;25.00;22.00;;;;;17.49;44.14;102147.84;5058019;28;45355;-66
2022/04/28 10:11:00;;;;;;;;;16.75;14.75;;;;;17.53;43.92;102158.47;5071850;28;45244;-66
2022/04/28 10:13:28;;;;;;;;;24.25;22.50;;;;;17.52;43.68;102145.00;5058286;28;45415;-66
2022/04/28 10:16:15;;;;;;;;;23.50;22.50;;;;;17.61;43.54;102139.28;5073784;28;46078;-66
2022/04/28 10:18:46;;;;;;;;;23.25;22.00;;;;;17.62;43.25;102132.03;5073111;28;45462;-66
2022/04/28 10:21:21;;;;;;;;;20.25;18.50;;;;;17.70;43.44;102141.59;5061822;28;45567;-66
2022/04/28 10:32:25;;;;;;;;;18.50;18.50;;;;;17.94;43.00;102126.25;5057867;28;45394;-66
2022/04/28 10:35:03;;;;;;;;;21.00;21.00;;;;;17.99;42.88;102131.44;5071901;27;46582;-66
2022/04/28 10:37:36;;;;;;;;;14.00;13.00;;;;;18.06;42.33;102126.66;5056350;28;45643;-66
2022/04/28 10:40:03;;;;;;;;;20.75;19.75;;;;;18.14;41.97;102129.91;5066959;28;45477;-66
2022/04/28 10:42:29;;;;;;;;;18.75;17.50;;;;;18.15;41.67;102121.75;5067906;28;45534;-66
2022/04/28 10:44:56;;;;;;;;;20.50;19.00;;;;;18.21;41.89;102119.72;5075828;28;46135;-66
2022/04/28 10:47:42;;;;;;;;;17.50;17.50;;;;;18.00;41.67;102078.31;5079501;28;45614;-66
2022/04/28 10:50:23;;;;;;;;;17.00;15.50;;;;;18.32;41.84;102106.63;5081340;28;45511;-66
2022/04/28 10:52:59;;;;;;;;;19.25;17.75;;;;;18.29;41.96;102085.16;5064192;28;45420;-66
2022/04/28 10:55:33;;;;;;;;;15.75;15.50;;;;;18.48;41.37;102102.31;5067754;28;47199;-66
2022/04/28 10:58:17;;;;;;;;;17.25;14.50;;;;;18.59;41.06;102109.94;5077669;27;45456;-66
2022/04/28 11:00:51;;;;;;;;;16.25;14.75;;;;;18.61;40.28;102093.66;5062408;28;45476;-66
2022/04/28 11:03:48;;;;;;;;;12.75;12.75;;;;;18.65;39.52;102103.41;5066767;28;45457;-66
2022/04/28 11:06:16;;;;;;;;;11.75;10.75;;;;;18.73;39.03;102113.88;5073940;28;46207;-66
2022/04/28 11:08:50;;;;;;;;;11.50;11.50;;;;;18.77;38.63;102104.69;5077680;28;45614;-66
2022/04/28 11:11:16;;;;;;;;;12.25;12.25;;;;;18.80;38.43;102105.41;5062711;28;45430;-66
2022/04/28 11:13:48;;;;;;;;;11.50;11.50;;;;;18.88;38.66;102105.13;5061756;28;45170;-66
2022/04/28 11:16:14;;;;;;;;;11.75;11.50;;;;;18.93;37.95;102100.38;5061384;28;45177;-66
2022/04/28 11:18:42;;;;;;;;;10.75;10.75;;;;;18.98;37.83;102102.88;5064010;28;45430;-66
2022/04/28 11:21:09;;;;;;;;;12.50;11.00;;;;;19.03;37.26;102103.53;5063606;28;45329;-67
2022/04/28 11:23:37;;;;;;;;;13.00;11.25;;;;;19.11;37.67;102112.19;5059964;28;45389;-65
2022/04/28 11:26:03;;;;;;;;;11.50;11.25;;;;;19.03;37.21;102088.16;5067896;28;45632;-65
2022/04/28 11:28:32;;;;;;;;;8.75;8.75;;;;;19.17;37.42;102100.16;5060229;28;45483;-65
2022/04/28 11:30:58;;;;;;;;;12.50;12.50;;;;;19.22;37.63;102107.13;5066657;28;45842;-65
2022/04/28 11:33:24;;;;;;;;;10.25;9.50;;;;;19.20;37.26;102095.50;5065598;28;45461;-65
2022/04/28 11:35:49;;;;;;;;;12.25;12.00;;;;;19.27;36.84;102103.31;5064448;28;46183;-65
2022/04/28 11:38:23;;;;;;;;;7.75;7.75;;;;;19.34;36.15;102110.19;5076330;28;45551;-66
2022/04/28 11:41:03;;;;;;;;;12.50;11.25;;;;;19.35;36.63;102102.00;5076664;28;45817;-65
2022/04/28 11:43:31;;;;;;;;;12.25;12.25;;;;;19.34;36.55;102102.06;5077758;28;45566;-65
2022/04/28 11:45:58;;;;;;;;;13.25;13.25;;;;;19.46;36.45;102120.44;5063578;28;45977;-65